createdAt,value
2022-11-29T00:00:03.031Z,8.60
2022-11-29T00:02:58.366Z,8.90
2022-11-29T00:05:44.314Z,8.90
2022-11-29T00:08:30.000Z,8.80
2022-11-29T00:11:39.893Z,8.90
2022-11-29T00:14:27.211Z,8.70
2022-11-29T00:17:12.942Z,8.20
2022-11-29T00:19:58.533Z,8.10
2022-11-29T00:22:44.047Z,7.90
2022-11-29T00:25:29.790Z,7.60
2022-11-29T00:28:15.419Z,7.70
2022-11-29T00:31:01.277Z,7.80
2022-11-29T00:33:47.209Z,7.90
2022-11-29T00:36:34.672Z,7.90
2022-11-29T00:39:20.401Z,7.70
2022-11-29T00:42:05.958Z,7.80
2022-11-29T00:44:51.511Z,7.70
2022-11-29T00:47:37.271Z,7.70
2022-11-29T00:50:23.008Z,7.70
2022-11-29T00:53:08.891Z,7.50
2022-11-29T00:55:55.069Z,7.50
2022-11-29T00:58:43.547Z,7.70
2022-11-29T01:01:29.718Z,7.70
2022-11-29T01:04:15.361Z,8.00
2022-11-29T01:07:01.170Z,8.30
2022-11-29T01:09:47.250Z,8.50
2022-11-29T01:12:39.388Z,8.70
2022-11-29T01:15:25.410Z,8.30
2022-11-29T01:18:11.493Z,8.00
2022-11-29T01:20:59.930Z,7.90
2022-11-29T01:23:46.946Z,7.70
2022-11-29T01:26:32.986Z,7.80
2022-11-29T01:29:18.678Z,8.00
2022-11-29T01:32:04.814Z,7.80
2022-11-29T01:34:50.677Z,7.80
2022-11-29T01:37:36.322Z,8.20
2022-11-29T01:40:21.845Z,8.50
2022-11-29T01:43:18.245Z,8.20
2022-11-29T01:46:04.204Z,7.90
2022-11-29T01:48:51.740Z,7.80
2022-11-29T01:51:41.495Z,7.80
2022-11-29T01:54:28.871Z,8.10
2022-11-29T01:57:15.436Z,8.60
2022-11-29T02:00:08.756Z,8.80
2022-11-29T02:03:08.356Z,8.90
2022-11-29T02:05:55.414Z,9.00
2022-11-29T02:08:42.753Z,9.00
2022-11-29T02:11:54.461Z,8.90
2022-11-29T02:14:40.217Z,8.40
2022-11-29T02:18:05.426Z,7.90
2022-11-29T02:21:09.165Z,7.70
2022-11-29T02:24:10.046Z,7.70
2022-11-29T02:27:21.218Z,8.00
2022-11-29T02:30:35.189Z,8.40
2022-11-29T02:33:29.524Z,8.80
2022-11-29T02:36:33.484Z,9.00
2022-11-29T02:39:37.311Z,9.10
2022-11-29T02:42:56.599Z,9.10
2022-11-29T02:46:03.921Z,9.10
2022-11-29T02:49:01.059Z,8.90
2022-11-29T02:52:01.965Z,8.90
2022-11-29T02:54:55.460Z,9.00
2022-11-29T02:58:09.169Z,8.90
2022-11-29T03:01:15.871Z,8.90
2022-11-29T03:04:04.275Z,8.90
2022-11-29T03:07:06.085Z,8.90
2022-11-29T03:10:23.407Z,9.00
2022-11-29T03:13:19.997Z,9.10
2022-11-29T03:16:43.422Z,9.00
2022-11-29T03:20:07.511Z,9.00
2022-11-29T03:23:17.641Z,9.00
2022-11-29T03:26:21.021Z,8.90
2022-11-29T03:29:07.716Z,8.90
2022-11-29T03:32:04.917Z,9.10
2022-11-29T03:34:55.676Z,9.20
2022-11-29T03:38:01.452Z,9.10
2022-11-29T03:41:00.250Z,8.70
2022-11-29T03:44:16.179Z,8.20
2022-11-29T03:47:10.142Z,8.00
2022-11-29T03:50:08.660Z,7.90
2022-11-29T03:53:02.387Z,8.00
2022-11-29T03:55:55.051Z,8.50
2022-11-29T03:59:19.465Z,8.50
2022-11-29T04:02:40.681Z,8.20
2022-11-29T04:05:37.313Z,8.00
2022-11-29T04:08:56.903Z,8.00
2022-11-29T04:11:59.000Z,7.90
2022-11-29T04:15:11.542Z,8.00
2022-11-29T04:18:08.475Z,8.00
2022-11-29T04:20:54.011Z,8.00
2022-11-29T04:24:00.161Z,7.90
2022-11-29T04:27:16.215Z,7.70
2022-11-29T04:30:14.317Z,7.80
2022-11-29T04:33:14.037Z,8.20
2022-11-29T04:36:14.516Z,8.70
2022-11-29T04:39:18.774Z,8.90
2022-11-29T04:42:18.205Z,8.80
2022-11-29T04:45:38.273Z,8.90
2022-11-29T04:48:51.136Z,9.00
2022-11-29T04:52:20.405Z,9.10
2022-11-29T04:55:22.726Z,9.10
2022-11-29T04:58:24.798Z,9.10
2022-11-29T05:01:28.658Z,9.10
2022-11-29T05:04:14.079Z,9.10
2022-11-29T05:06:59.707Z,9.00
2022-11-29T05:10:07.283Z,8.90
2022-11-29T05:13:15.647Z,8.90
2022-11-29T05:16:29.720Z,9.10
2022-11-29T05:19:41.312Z,9.00
2022-11-29T05:22:40.522Z,8.80
2022-11-29T05:25:50.514Z,8.90
2022-11-29T05:29:10.020Z,9.00
2022-11-29T05:32:22.891Z,8.90
2022-11-29T05:35:23.467Z,8.50
2022-11-29T05:38:34.338Z,8.20
2022-11-29T05:41:42.228Z,8.20
2022-11-29T05:44:58.664Z,8.70
2022-11-29T05:48:02.018Z,8.90
2022-11-29T05:51:06.573Z,9.00
2022-11-29T05:54:25.418Z,8.90
2022-11-29T05:57:14.709Z,9.00
2022-11-29T06:00:04.480Z,8.90
2022-11-29T06:03:06.627Z,8.90
2022-11-29T06:06:00.630Z,9.00
2022-11-29T06:08:55.157Z,9.00
2022-11-29T06:12:02.588Z,9.00
2022-11-29T06:15:13.826Z,9.00
2022-11-29T06:18:18.446Z,8.90
2022-11-29T06:21:42.971Z,8.90
2022-11-29T06:24:28.831Z,8.80
2022-11-29T06:27:26.571Z,8.80
2022-11-29T06:30:16.337Z,8.70
2022-11-29T06:33:06.990Z,8.60
2022-11-29T06:36:04.254Z,8.60
2022-11-29T06:38:50.157Z,8.40
2022-11-29T06:41:36.071Z,8.60
2022-11-29T06:44:22.071Z,8.60
2022-11-29T06:47:22.468Z,8.60
2022-11-29T06:50:33.823Z,8.40
2022-11-29T06:53:30.870Z,8.10
2022-11-29T06:56:40.958Z,8.10
2022-11-29T06:59:56.166Z,8.40
2022-11-29T07:03:00.884Z,8.60
2022-11-29T07:05:46.933Z,8.30
2022-11-29T07:08:32.909Z,7.80
2022-11-29T07:11:18.692Z,8.20
2022-11-29T07:14:04.504Z,8.40
2022-11-29T07:17:16.433Z,8.60
2022-11-29T07:20:24.705Z,8.00
2022-11-29T07:23:31.046Z,8.00
2022-11-29T07:26:21.603Z,8.30
2022-11-29T07:29:29.604Z,8.60
2022-11-29T07:32:19.804Z,8.70
2022-11-29T07:35:21.603Z,8.90
2022-11-29T07:38:38.082Z,8.90
2022-11-29T07:41:36.080Z,8.90
2022-11-29T07:45:00.693Z,8.90
2022-11-29T07:47:46.430Z,8.80
2022-11-29T07:50:32.261Z,8.90
2022-11-29T07:53:20.925Z,8.80
2022-11-29T07:56:09.267Z,8.60
2022-11-29T07:58:54.930Z,8.70
2022-11-29T08:01:41.171Z,8.70
2022-11-29T08:04:27.148Z,8.80
2022-11-29T08:07:13.019Z,8.80
2022-11-29T08:09:58.635Z,9.00
2022-11-29T08:12:50.148Z,9.10
2022-11-29T08:15:35.828Z,8.90
2022-11-29T08:18:21.696Z,8.40
2022-11-29T08:21:07.777Z,7.90
2022-11-29T08:23:53.695Z,7.60
2022-11-29T08:26:39.266Z,7.50
2022-11-29T08:29:25.505Z,8.10
2022-11-29T08:32:10.991Z,8.60
2022-11-29T08:34:56.675Z,8.80
2022-11-29T08:37:42.552Z,9.00
2022-11-29T08:40:28.005Z,9.00
2022-11-29T08:43:13.717Z,9.30
2022-11-29T08:45:59.951Z,9.20
2022-11-29T08:48:46.805Z,9.00
2022-11-29T08:51:34.133Z,9.20
2022-11-29T08:54:19.595Z,9.20
2022-11-29T08:57:37.810Z,8.80
2022-11-29T09:00:11.393Z,8.10
2022-11-29T09:03:16.953Z,7.90
2022-11-29T09:06:12.236Z,8.40
2022-11-29T09:09:00.325Z,8.60
2022-11-29T09:11:49.375Z,8.80
2022-11-29T09:14:35.318Z,8.50
2022-11-29T09:17:21.486Z,8.10
2022-11-29T09:20:08.367Z,8.30
2022-11-29T09:22:53.913Z,8.80
2022-11-29T09:25:39.991Z,8.80
2022-11-29T09:28:25.728Z,8.90
2022-11-29T09:31:14.343Z,9.00
2022-11-29T09:33:59.843Z,9.00
2022-11-29T09:36:45.689Z,8.10
2022-11-29T09:39:32.513Z,8.10
2022-11-29T09:42:45.515Z,7.70
2022-11-29T09:45:37.777Z,8.20
2022-11-29T09:49:17.439Z,8.60
2022-11-29T09:52:15.333Z,8.20
2022-11-29T09:55:10.163Z,8.90
2022-11-29T09:57:59.735Z,9.20
2022-11-29T10:01:01.006Z,9.20
2022-11-29T10:03:56.507Z,9.30
2022-11-29T10:07:03.447Z,9.10
2022-11-29T10:09:56.427Z,8.60
2022-11-29T10:12:52.200Z,8.40
2022-11-29T10:15:44.599Z,8.30
2022-11-29T10:19:09.151Z,8.10
2022-11-29T10:22:04.081Z,8.30
2022-11-29T10:24:54.822Z,8.90
2022-11-29T10:27:41.186Z,8.50
2022-11-29T10:30:27.317Z,8.80
2022-11-29T10:33:22.078Z,9.20
2022-11-29T10:36:21.894Z,9.20
2022-11-29T10:39:39.926Z,9.50
2022-11-29T10:42:46.421Z,9.00
2022-11-29T10:45:35.530Z,9.40
2022-11-29T10:48:28.019Z,9.50
2022-11-29T10:51:17.797Z,8.80
2022-11-29T10:54:18.492Z,8.40
2022-11-29T10:57:13.497Z,8.30
2022-11-29T11:00:02.198Z,8.50
2022-11-29T11:02:48.315Z,8.40
2022-11-29T11:05:34.434Z,8.20
2022-11-29T11:08:20.165Z,8.70
2022-11-29T11:11:08.300Z,9.40
2022-11-29T11:14:04.412Z,9.70
2022-11-29T11:16:50.608Z,9.70
2022-11-29T11:19:36.445Z,8.90
2022-11-29T11:22:25.776Z,9.20
2022-11-29T11:25:35.091Z,9.60
2022-11-29T11:28:26.245Z,9.80
2022-11-29T11:31:13.529Z,10.00
2022-11-29T11:34:19.325Z,9.70
2022-11-29T11:37:27.111Z,9.80
2022-11-29T11:40:29.190Z,9.80
2022-11-29T11:43:21.962Z,9.80
2022-11-29T11:46:08.271Z,9.80
2022-11-29T11:48:54.497Z,9.80
2022-11-29T11:51:43.005Z,9.80
2022-11-29T11:54:29.479Z,9.80
2022-11-29T11:57:19.105Z,9.70
2022-11-29T12:00:07.337Z,9.50
2022-11-29T12:02:58.972Z,9.40
2022-11-29T12:05:47.588Z,9.60
2022-11-29T12:08:36.118Z,9.60
2022-11-29T12:11:29.798Z,9.60
2022-11-29T12:14:28.731Z,9.80
2022-11-29T12:18:03.599Z,9.80
2022-11-29T12:21:16.467Z,9.70
2022-11-29T12:24:27.631Z,9.80
2022-11-29T12:27:15.026Z,10.00
2022-11-29T12:30:01.384Z,10.00
2022-11-29T12:33:04.305Z,10.10
2022-11-29T12:36:09.022Z,10.10
2022-11-29T12:38:57.888Z,9.50
2022-11-29T12:41:56.536Z,9.50
2022-11-29T12:45:20.918Z,9.40
2022-11-29T12:48:30.985Z,9.50
2022-11-29T12:51:35.618Z,9.40
2022-11-29T12:54:24.556Z,9.40
2022-11-29T12:57:19.354Z,9.40
2022-11-29T13:00:11.610Z,9.60
2022-11-29T13:03:15.743Z,9.60
2022-11-29T13:06:36.465Z,9.60
2022-11-29T13:09:48.067Z,9.70
2022-11-29T13:12:42.032Z,9.60
2022-11-29T13:15:42.855Z,9.70
2022-11-29T13:18:40.998Z,9.80
2022-11-29T13:21:31.716Z,9.80
2022-11-29T13:24:28.881Z,9.80
2022-11-29T13:27:27.416Z,9.80
2022-11-29T13:30:16.315Z,9.70
2022-11-29T13:33:31.911Z,9.50
2022-11-29T13:36:32.371Z,9.20
2022-11-29T13:39:23.907Z,9.40
2022-11-29T13:42:54.025Z,9.50
2022-11-29T13:45:48.061Z,9.60
2022-11-29T13:48:36.845Z,9.60
2022-11-29T13:51:27.555Z,9.60
2022-11-29T13:54:28.197Z,9.70
2022-11-29T13:57:13.761Z,9.90
2022-11-29T13:59:59.312Z,9.80
2022-11-29T14:02:47.417Z,9.70
2022-11-29T14:05:43.860Z,9.40
2022-11-29T14:08:42.488Z,9.50
2022-11-29T14:11:42.882Z,9.70
2022-11-29T14:14:39.755Z,9.40
2022-11-29T14:17:51.465Z,9.00
2022-11-29T14:20:41.237Z,8.30
2022-11-29T14:23:44.397Z,8.90
2022-11-29T14:26:30.653Z,9.10
2022-11-29T14:29:48.980Z,9.40
2022-11-29T14:32:49.143Z,8.80
2022-11-29T14:35:44.314Z,9.00
2022-11-29T14:39:07.023Z,9.30
2022-11-29T14:45:46.203Z,9.50
2022-11-29T14:48:35.154Z,9.50
2022-11-29T14:51:22.102Z,9.60
2022-11-29T14:54:20.478Z,9.60
2022-11-29T14:57:44.004Z,9.70
2022-11-29T15:00:52.993Z,9.70
2022-11-29T15:03:49.844Z,10.20
2022-11-29T15:06:41.620Z,9.80
2022-11-29T15:09:34.453Z,9.20
2022-11-29T15:12:36.431Z,9.00
2022-11-29T15:15:48.782Z,8.70
2022-11-29T15:18:53.317Z,9.10
2022-11-29T15:21:51.997Z,9.20
2022-11-29T15:25:02.157Z,9.20
2022-11-29T15:28:02.646Z,8.90
2022-11-29T15:30:51.312Z,9.00
2022-11-29T15:33:40.152Z,9.00
2022-11-29T15:36:26.473Z,9.30
2022-11-29T15:39:35.707Z,9.60
2022-11-29T15:42:21.222Z,9.60
2022-11-29T15:45:28.054Z,9.60
2022-11-29T15:48:27.026Z,9.60
2022-11-29T15:51:34.199Z,9.50
2022-11-29T15:54:41.064Z,9.20
2022-11-29T15:57:50.924Z,9.10
2022-11-29T16:00:37.337Z,9.00
2022-11-29T16:03:30.182Z,8.90
2022-11-29T16:06:41.238Z,9.90
2022-11-29T16:09:39.525Z,9.00
2022-11-29T16:12:26.585Z,9.00
2022-11-29T16:18:41.098Z,9.00
2022-11-29T16:21:33.557Z,9.00
2022-11-29T16:24:23.462Z,9.00
2022-11-29T16:27:14.737Z,8.70
2022-11-29T16:30:02.579Z,8.80
2022-11-29T16:39:41.358Z,7.60
2022-11-29T16:45:44.010Z,10.90
2022-11-29T16:48:42.553Z,9.30
2022-11-29T16:51:42.735Z,8.10
2022-11-29T16:54:34.494Z,7.70
2022-11-29T16:57:21.936Z,8.20
2022-11-29T17:00:45.805Z,9.20
2022-11-29T17:03:31.378Z,9.10
2022-11-29T17:06:24.133Z,9.10
2022-11-29T17:09:40.440Z,9.30
2022-11-29T17:12:26.542Z,9.20
2022-11-29T17:15:14.135Z,9.10
2022-11-29T17:18:00.975Z,9.20
2022-11-29T17:20:49.116Z,9.10
2022-11-29T17:23:35.025Z,9.00
2022-11-29T17:26:22.592Z,9.00
2022-11-29T17:29:15.223Z,9.00
2022-11-29T17:32:01.148Z,8.90
2022-11-29T17:34:47.165Z,9.00
2022-11-29T17:37:33.325Z,8.90
2022-11-29T17:40:20.368Z,8.80
2022-11-29T17:43:07.151Z,8.70
2022-11-29T17:45:56.001Z,8.80
2022-11-29T17:48:42.828Z,8.70
2022-11-29T17:51:51.086Z,8.20
2022-11-29T17:54:36.121Z,8.90
2022-11-29T17:57:22.112Z,9.10
2022-11-29T18:00:13.420Z,9.10
2022-11-29T18:02:58.975Z,9.10
2022-11-29T18:05:44.506Z,9.10
2022-11-29T18:08:30.261Z,9.00
2022-11-29T18:11:22.924Z,9.00
2022-11-29T18:14:11.352Z,9.00
2022-11-29T18:16:56.988Z,9.10
2022-11-29T18:19:42.955Z,9.00
2022-11-29T18:22:28.596Z,8.90
2022-11-29T18:25:37.477Z,8.90
2022-11-29T18:28:19.923Z,9.00
2022-11-29T18:31:10.269Z,9.10
2022-11-29T18:33:58.682Z,9.20
2022-11-29T18:36:47.583Z,8.90
2022-11-29T18:39:33.149Z,9.00
2022-11-29T18:42:18.957Z,8.80
2022-11-29T18:45:05.232Z,8.70
2022-11-29T18:47:51.205Z,8.90
2022-11-29T18:50:36.812Z,8.90
2022-11-29T18:53:22.708Z,8.60
2022-11-29T18:56:15.732Z,8.80
2022-11-29T18:59:05.153Z,8.90
2022-11-29T19:01:50.646Z,9.10
2022-11-29T19:04:37.894Z,9.20
2022-11-29T19:07:23.802Z,9.30
2022-11-29T19:10:09.805Z,9.20
2022-11-29T19:12:56.333Z,9.20
2022-11-29T19:15:42.194Z,9.10
2022-11-29T19:18:28.295Z,9.10
2022-11-29T19:21:17.191Z,9.20
2022-11-29T19:24:04.766Z,9.90
2022-11-29T19:26:50.803Z,9.10
2022-11-29T19:29:39.611Z,8.80
2022-11-29T19:32:25.572Z,8.90
2022-11-29T19:35:11.347Z,8.70
2022-11-29T19:37:57.288Z,8.70
2022-11-29T19:40:43.420Z,8.70
2022-11-29T19:43:28.739Z,7.70
2022-11-29T19:46:19.861Z,8.90
2022-11-29T19:49:07.471Z,8.70
2022-11-29T19:51:54.996Z,8.90
2022-11-29T19:54:40.720Z,8.90
2022-11-29T19:57:26.867Z,8.90
2022-11-29T20:00:13.371Z,9.30
2022-11-29T20:02:59.769Z,8.90
2022-11-29T20:05:56.642Z,8.70
2022-11-29T20:08:43.048Z,8.60
2022-11-29T20:11:28.538Z,8.60
2022-11-29T20:14:14.779Z,8.60
2022-11-29T20:17:00.383Z,8.50
2022-11-29T20:19:46.093Z,8.60
2022-11-29T20:22:32.020Z,8.40
2022-11-29T20:25:17.608Z,8.40
2022-11-29T20:28:04.285Z,8.40
2022-11-29T20:30:49.900Z,8.30
2022-11-29T20:33:35.776Z,8.30
2022-11-29T20:36:29.116Z,8.30
2022-11-29T20:39:29.022Z,8.20
2022-11-29T20:42:47.204Z,8.20
2022-11-29T20:45:33.281Z,8.10
2022-11-29T20:48:23.252Z,8.10
2022-11-29T20:51:10.663Z,8.30
2022-11-29T20:53:58.691Z,8.40
2022-11-29T20:56:46.734Z,8.40
2022-11-29T20:59:31.948Z,8.40
2022-11-29T21:02:17.407Z,8.50
2022-11-29T21:05:03.787Z,8.30
2022-11-29T21:07:49.583Z,8.30
2022-11-29T21:10:35.346Z,8.10
2022-11-29T21:13:22.948Z,8.00
2022-11-29T21:16:11.476Z,8.00
2022-11-29T21:19:00.523Z,7.90
2022-11-29T21:22:21.241Z,7.90
2022-11-29T21:25:15.982Z,7.90
2022-11-29T21:28:02.494Z,8.00
2022-11-29T21:30:48.244Z,8.20
2022-11-29T21:33:34.192Z,8.20
2022-11-29T21:36:20.430Z,8.20
2022-11-29T21:39:13.796Z,7.90
2022-11-29T21:41:59.655Z,7.90
2022-11-29T21:44:45.378Z,8.10
2022-11-29T21:47:32.072Z,8.10
2022-11-29T21:50:17.741Z,8.00
2022-11-29T21:53:03.721Z,7.90
2022-11-29T21:55:55.068Z,7.90
2022-11-29T21:58:41.395Z,7.80
2022-11-29T22:01:27.923Z,7.80
2022-11-29T22:04:13.791Z,7.70
2022-11-29T22:06:59.332Z,7.80
2022-11-29T22:09:45.406Z,7.90
2022-11-29T22:12:35.236Z,7.80
2022-11-29T22:15:24.866Z,7.80
2022-11-29T22:18:11.418Z,7.80
2022-11-29T22:21:02.001Z,7.80
2022-11-29T22:23:47.837Z,7.80
2022-11-29T22:26:33.656Z,7.80
2022-11-29T22:29:20.247Z,7.70
2022-11-29T22:32:06.352Z,7.70
2022-11-29T22:34:52.261Z,7.60
2022-11-29T22:37:38.070Z,7.60
2022-11-29T22:40:24.083Z,7.60
2022-11-29T22:43:09.769Z,7.50
2022-11-29T22:45:55.502Z,7.50
2022-11-29T22:48:42.966Z,6.50
2022-11-29T22:51:31.193Z,7.60
2022-11-29T22:54:17.415Z,7.70
2022-11-29T22:57:03.608Z,7.70
2022-11-29T22:59:49.184Z,7.60
2022-11-29T23:02:34.599Z,7.70
2022-11-29T23:05:20.678Z,7.70
2022-11-29T23:08:06.203Z,7.70
2022-11-29T23:11:01.266Z,7.60
2022-11-29T23:13:47.414Z,7.60
2022-11-29T23:16:33.596Z,7.50
2022-11-29T23:19:21.254Z,7.40
2022-11-29T23:22:07.032Z,7.30
2022-11-29T23:24:52.969Z,7.70
2022-11-29T23:27:38.630Z,7.40
2022-11-29T23:30:24.223Z,7.40
2022-11-29T23:33:09.790Z,7.40
2022-11-29T23:36:04.894Z,7.50
2022-11-29T23:38:50.541Z,7.50
2022-11-29T23:41:36.824Z,7.50
2022-11-29T23:44:22.700Z,7.50
2022-11-29T23:47:08.258Z,7.60
2022-11-29T23:49:54.029Z,7.50
2022-11-29T23:52:39.414Z,7.50
2022-11-29T23:55:25.964Z,7.40
2022-11-29T23:58:11.800Z,7.40
